Time;durP1;ratioP1;P1;durP2;ratioP2;P2;SDS_P1;SDS_P2;PMS_P1;PMS_P2;Temp;Humidity;BMP_temperature;BMP_pressure;BME280_temperature;BME280_humidity;BME280_pressure;Samples;Min_cycle;Max_cycle;Signal;HPM_P1;HPM_P2
2023/02/03 00:00:10;;;;;;;8.10;4.97;;;6.60;99.90;;;;;;5052133;28;20229;-77
2023/02/03 00:02:37;;;;;;;9.32;6.32;;;6.60;99.90;;;;;;5052326;28;20270;-77
2023/02/03 00:05:07;;;;;;;8.82;4.60;;;6.60;99.90;;;;;;5052422;28;20290;-79
2023/02/03 00:07:36;;;;;;;5.60;4.47;;;6.60;99.90;;;;;;5051868;28;20240;-77
2023/02/03 00:10:04;;;;;;;9.25;4.00;;;6.60;99.90;;;;;;5005013;28;20302;-79
2023/02/03 00:12:32;;;;;;;6.47;4.28;;;6.60;99.90;;;;;;4971104;28;20235;-76
2023/02/03 00:14:59;;;;;;;11.27;4.40;;;6.60;99.90;;;;;;4970621;28;20223;-78
2023/02/03 00:17:26;;;;;;;4.78;3.92;;;6.60;99.90;;;;;;4971609;28;20235;-77
2023/02/03 00:19:54;;;;;;;7.03;3.75;;;6.70;99.90;;;;;;5050395;28;20225;-76
2023/02/03 00:22:21;;;;;;;6.40;3.65;;;6.60;99.90;;;;;;5051127;28;20236;-78
2023/02/03 00:24:48;;;;;;;5.13;3.40;;;6.60;99.90;;;;;;5050667;28;20244;-77
2023/02/03 00:27:15;;;;;;;9.10;3.70;;;6.50;99.90;;;;;;5051376;28;20235;-77
2023/02/03 00:29:43;;;;;;;6.95;2.97;;;6.50;99.90;;;;;;5051530;28;20232;-79
2023/02/03 00:32:10;;;;;;;7.15;2.80;;;6.50;99.90;;;;;;5051219;28;20224;-77
2023/02/03 00:34:38;;;;;;;13.27;4.47;;;6.50;99.90;;;;;;5051822;28;20244;-77
2023/02/03 00:37:12;;;;;;;7.10;4.55;;;6.50;99.90;;;;;;5052152;28;20255;-76
2023/02/03 00:39:41;;;;;;;7.75;3.20;;;6.40;99.90;;;;;;5051519;28;20227;-79
2023/02/03 00:42:08;;;;;;;8.27;3.03;;;6.30;99.90;;;;;;5051669;28;20217;-77
2023/02/03 00:44:35;;;;;;;8.27;4.00;;;6.40;99.90;;;;;;5051666;28;20228;-77
2023/02/03 00:47:03;;;;;;;4.78;3.35;;;6.40;99.90;;;;;;5051015;28;20224;-77
2023/02/03 00:49:30;;;;;;;10.50;4.20;;;6.40;99.90;;;;;;5052361;28;20716;-77
2023/02/03 00:51:58;;;;;;;8.70;3.70;;;6.30;99.90;;;;;;5051055;28;20604;-77
2023/02/03 00:54:25;;;;;;;5.07;3.35;;;6.40;99.90;;;;;;5050996;28;20220;-77
2023/02/03 00:56:52;;;;;;;8.10;3.45;;;6.40;99.90;;;;;;5050574;28;20221;-77
2023/02/03 00:59:19;;;;;;;6.53;4.38;;;6.30;99.90;;;;;;5053660;28;20323;-77
2023/02/03 01:01:48;;;;;;;9.80;3.80;;;6.30;99.90;;;;;;5054334;28;20231;-77
2023/02/03 01:04:16;;;;;;;4.25;3.05;;;6.30;99.90;;;;;;5055510;28;20220;-77
2023/02/03 01:06:43;;;;;;;7.68;3.60;;;6.30;99.90;;;;;;5055195;28;20539;-77
2023/02/03 01:09:10;;;;;;;6.93;4.28;;;6.20;99.90;;;;;;5055920;28;20598;-77
2023/02/03 01:11:37;;;;;;;12.95;4.50;;;6.20;99.90;;;;;;5055244;28;20690;-77
2023/02/03 01:45:30;;;;;;;5.15;4.35;;;5.90;99.90;;;;;;4811710;29;20399;-77
2023/02/03 01:48:00;;;;;;;7.13;4.20;;;5.90;99.90;;;;;;4792654;29;20232;-80
2023/02/03 01:50:31;;;;;;;5.80;4.32;;;5.90;99.90;;;;;;4865369;29;20235;-80
2023/02/03 01:53:01;;;;;;;6.30;4.05;;;5.80;99.90;;;;;;4908781;28;20287;-80
2023/02/03 01:55:34;;;;;;;8.50;3.85;;;5.80;99.90;;;;;;4914516;28;20229;-79
2023/02/03 01:58:11;;;;;;;4.40;4.00;;;5.80;99.90;;;;;;4915756;28;20233;-80
2023/02/03 02:00:43;;;;;;;7.03;5.20;;;5.80;99.90;;;;;;4914823;28;20233;-77
2023/02/03 02:03:10;;;;;;;19.10;13.10;;;5.80;99.90;;;;;;4916916;28;20221;-80
2023/02/03 02:05:43;;;;;;;5.05;4.55;;;5.80;99.90;;;;;;4922825;28;20226;-79
2023/02/03 02:08:12;;;;;;;13.25;8.02;;;5.80;99.90;;;;;;4919783;28;20230;-77
2023/02/03 02:10:41;;;;;;;7.32;4.50;;;5.80;99.90;;;;;;4916369;28;20237;-80
2023/02/03 02:13:09;;;;;;;9.27;6.35;;;5.70;99.90;;;;;;4919387;28;20565;-79
2023/02/03 02:15:47;;;;;;;6.55;4.30;;;5.70;99.90;;;;;;4948260;28;20230;-79
2023/02/03 02:18:24;;;;;;;9.70;5.20;;;5.70;99.90;;;;;;4916348;28;20264;-79
2023/02/03 02:21:23;;;;;;;6.05;3.60;;;5.70;99.90;;;;;;4915690;28;20229;-79
2023/02/03 02:24:34;;;;;;;5.80;4.32;;;5.70;99.90;;;;;;4922481;28;20229;-79
2023/02/03 02:27:13;;;;;;;4.20;3.80;;;5.70;99.90;;;;;;4857577;29;20576;-79
2023/02/03 02:30:12;;;;;;;3.50;3.15;;;5.70;99.90;;;;;;4857867;29;20236;-79
2023/02/03 02:32:56;;;;;;;6.85;4.35;;;5.70;99.90;;;;;;4899421;28;20248;-80
2023/02/03 02:35:38;;;;;;;3.72;3.42;;;5.70;99.90;;;;;;4915803;28;20614;-79
2023/02/03 02:38:14;;;;;;;4.95;3.83;;;5.70;99.90;;;;;;4915214;28;20569;-79
2023/02/03 02:40:49;;;;;;;4.60;3.42;;;5.70;99.90;;;;;;4914750;28;20764;-78
2023/02/03 02:43:21;;;;;;;4.68;4.03;;;5.70;99.90;;;;;;4915976;28;20221;-80
2023/02/03 02:45:51;;;;;;;5.82;4.65;;;5.70;99.90;;;;;;4917402;28;20229;-77
2023/02/03 02:48:27;;;;;;;6.15;3.50;;;5.70;99.90;;;;;;4915963;28;20236;-76
2023/02/03 02:50:58;;;;;;;4.90;4.50;;;5.70;99.90;;;;;;4917626;28;20271;-77
2023/02/03 02:53:28;;;;;;;5.78;4.22;;;5.60;99.90;;;;;;4917040;28;20253;-80
2023/02/03 02:55:57;;;;;;;6.78;3.63;;;5.60;99.90;;;;;;4914881;28;20221;-79
2023/02/03 02:58:27;;;;;;;4.00;3.60;;;5.60;99.90;;;;;;4915149;28;20240;-79
2023/02/03 03:00:55;;;;;;;5.78;3.85;;;5.50;99.90;;;;;;4913980;28;20237;-79
2023/02/03 03:03:24;;;;;;;7.32;4.10;;;5.50;99.90;;;;;;4915051;28;20303;-79
2023/02/03 03:05:55;;;;;;;7.45;4.30;;;5.40;99.90;;;;;;4914359;28;20349;-79
2023/02/03 03:08:35;;;;;;;4.80;4.18;;;5.50;99.90;;;;;;4914870;28;20229;-79
2023/02/03 03:11:05;;;;;;;4.35;3.95;;;5.50;99.90;;;;;;4914742;28;20691;-78
2023/02/03 03:13:35;;;;;;;6.55;3.80;;;5.40;99.90;;;;;;4915066;28;20287;-78
2023/02/03 03:16:06;;;;;;;5.63;4.30;;;5.40;99.90;;;;;;4906562;28;20252;-78
2023/02/03 03:18:37;;;;;;;4.25;3.40;;;5.50;99.90;;;;;;4914505;28;20308;-79
2023/02/03 03:21:07;;;;;;;4.30;4.00;;;5.50;99.90;;;;;;4914289;28;20233;-77
2023/02/03 03:23:38;;;;;;;3.85;3.42;;;5.50;99.90;;;;;;4914844;28;20229;-76
2023/02/03 03:26:11;;;;;;;3.33;2.92;;;5.40;99.90;;;;;;4914388;28;20229;-76
2023/02/03 03:28:48;;;;;;;3.40;3.05;;;5.40;99.90;;;;;;4915157;28;20550;-78
2023/02/03 03:31:17;;;;;;;3.90;3.60;;;5.40;99.90;;;;;;4914829;28;20295;-78
2023/02/03 03:33:46;;;;;;;3.40;3.00;;;5.40;99.90;;;;;;4915049;28;20238;-76
2023/02/03 03:36:22;;;;;;;3.42;3.15;;;5.40;99.90;;;;;;4914473;28;20233;-77
2023/02/03 03:38:55;;;;;;;3.28;3.00;;;5.50;99.90;;;;;;4914712;28;20229;-76
2023/02/03 03:41:29;;;;;;;3.47;2.85;;;5.40;99.90;;;;;;4914353;28;20245;-77
2023/02/03 03:44:02;;;;;;;3.17;2.90;;;5.40;99.90;;;;;;4913324;28;20799;-76
2023/02/03 03:46:35;;;;;;;4.03;3.65;;;5.40;99.90;;;;;;4914015;28;20248;-76
2023/02/03 03:49:06;;;;;;;3.03;2.83;;;5.40;99.90;;;;;;4914379;28;20233;-76
2023/02/03 03:51:37;;;;;;;5.00;3.17;;;5.40;99.90;;;;;;4914240;28;20260;-78
2023/02/03 03:54:07;;;;;;;3.63;3.10;;;5.50;99.90;;;;;;4914519;28;20237;-76
2023/02/03 03:56:39;;;;;;;3.55;2.92;;;5.50;99.90;;;;;;4913134;28;20225;-79
2023/02/03 03:59:12;;;;;;;3.30;3.00;;;5.50;99.90;;;;;;4914341;28;20225;-79
2023/02/03 04:01:39;;;;;;;2.50;2.30;;;5.50;99.90;;;;;;4944349;28;20275;-78
2023/02/03 04:04:10;;;;;;;2.95;2.65;;;5.60;99.90;;;;;;4914423;28;20277;-79
2023/02/03 04:06:39;;;;;;;2.60;2.40;;;5.60;99.90;;;;;;4914629;28;20236;-77
2023/02/03 04:09:06;;;;;;;2.33;2.20;;;5.70;99.90;;;;;;4914435;28;20234;-79
2023/02/03 04:14:20;;;;;;;2.95;2.75;;;5.70;99.90;;;;;;4914202;28;20235;-77
2023/02/03 04:16:48;;;;;;;2.42;2.22;;;5.80;99.90;;;;;;4914931;28;20300;-77
2023/02/03 04:19:17;;;;;;;2.70;2.50;;;5.80;99.90;;;;;;4913981;28;20623;-78
2023/02/03 04:21:44;;;;;;;2.55;2.40;;;5.90;99.90;;;;;;4914322;28;20229;-78
2023/02/03 04:24:11;;;;;;;3.20;2.90;;;5.90;99.90;;;;;;4914670;28;20229;-78
2023/02/03 04:26:39;;;;;;;3.13;2.92;;;5.90;99.90;;;;;;4913616;28;20233;-78
2023/02/03 04:29:06;;;;;;;2.75;2.55;;;5.90;99.90;;;;;;4914208;28;20249;-78
2023/02/03 04:31:33;;;;;;;3.17;2.95;;;5.90;99.90;;;;;;4913552;28;20241;-77
2023/02/03 04:34:00;;;;;;;3.70;3.47;;;6.00;99.90;;;;;;4915247;28;20221;-78
2023/02/03 04:36:32;;;;;;;3.75;3.55;;;6.00;99.90;;;;;;4916597;28;20318;-78
2023/02/03 04:38:59;;;;;;;4.47;4.07;;;6.00;99.90;;;;;;4917351;28;20239;-77
2023/02/03 04:41:26;;;;;;;6.03;4.95;;;6.00;99.90;;;;;;4916487;28;20755;-77
2023/02/03 04:43:54;;;;;;;5.68;5.20;;;6.10;99.90;;;;;;4917551;28;20240;-79
2023/02/03 04:46:21;;;;;;;6.22;5.63;;;6.10;99.90;;;;;;4916580;28;20245;-79
2023/02/03 04:48:48;;;;;;;5.25;4.80;;;6.10;99.90;;;;;;4916721;28;20644;-76
2023/02/03 04:51:15;;;;;;;6.10;5.60;;;6.20;99.90;;;;;;4916646;28;20650;-76
2023/02/03 04:53:43;;;;;;;7.47;6.78;;;6.20;99.90;;;;;;4916336;28;20620;-76
2023/02/03 04:56:12;;;;;;;7.97;7.18;;;6.20;99.90;;;;;;4917123;28;20280;-76
2023/02/03 04:58:40;;;;;;;7.25;6.40;;;6.30;99.90;;;;;;4916363;28;20237;-77
2023/02/03 05:01:08;;;;;;;9.52;8.15;;;6.40;99.90;;;;;;4917313;28;20230;-76
2023/02/03 05:03:38;;;;;;;10.70;9.60;;;6.40;99.90;;;;;;4916332;28;20316;-76
2023/02/03 05:06:06;;;;;;;10.80;9.05;;;6.50;99.90;;;;;;4917246;28;20225;-79
2023/02/03 05:08:33;;;;;;;10.40;9.35;;;6.50;99.90;;;;;;4916178;28;20286;-78
2023/02/03 05:11:01;;;;;;;9.23;8.27;;;6.60;99.90;;;;;;4917147;28;20233;-79
2023/02/03 05:13:28;;;;;;;10.40;9.32;;;6.70;99.90;;;;;;4914922;28;20597;-78
2023/02/03 05:15:55;;;;;;;12.90;11.10;;;6.70;99.90;;;;;;4916664;28;20252;-79
2023/02/03 05:18:23;;;;;;;17.33;13.25;;;6.90;99.90;;;;;;4915558;28;20230;-79
2023/02/03 05:20:49;;;;;;;17.15;12.45;;;6.90;99.90;;;;;;4916585;28;20229;-76
2023/02/03 05:23:16;;;;;;;12.43;10.35;;;7.00;99.90;;;;;;4916126;28;20225;-78
2023/02/03 05:25:44;;;;;;;14.35;12.85;;;7.00;99.90;;;;;;4915975;28;20221;-79
2023/02/03 05:28:13;;;;;;;12.60;11.30;;;7.10;99.90;;;;;;4916539;28;20260;-76
2023/02/03 05:30:40;;;;;;;17.95;14.55;;;7.20;99.90;;;;;;4915807;28;20272;-79
2023/02/03 05:33:07;;;;;;;14.32;12.93;;;7.20;99.90;;;;;;4916101;28;20563;-76
2023/02/03 05:35:34;;;;;;;15.48;13.05;;;7.30;99.90;;;;;;4907335;28;20276;-79
2023/02/03 05:38:04;;;;;;;13.98;12.55;;;7.40;99.90;;;;;;4916294;28;20253;-76
2023/02/03 05:43:21;;;;;;;19.02;15.95;;;7.50;99.90;;;;;;4915743;28;20544;-77
2023/02/03 05:46:23;;;;;;;52.72;34.90;;;7.50;99.90;;;;;;4904590;28;20813;-79
2023/02/03 05:48:50;;;;;;;18.67;15.90;;;7.60;99.90;;;;;;4899325;28;20230;-77
2023/02/03 05:51:17;;;;;;;20.55;15.95;;;7.70;99.90;;;;;;4946127;28;20619;-76
2023/02/03 05:53:48;;;;;;;21.50;16.58;;;7.80;99.90;;;;;;4915287;28;20311;-76
2023/02/03 05:56:16;;;;;;;18.05;16.10;;;7.80;99.90;;;;;;4916173;28;20229;-78
2023/02/03 05:58:44;;;;;;;20.45;17.77;;;7.80;99.90;;;;;;4915704;28;20225;-76
2023/02/03 06:01:12;;;;;;;24.15;16.90;;;7.90;99.90;;;;;;4916320;28;20279;-76
2023/02/03 06:03:48;;;;;;;19.45;16.65;;;7.90;99.90;;;;;;4914429;28;20229;-76
2023/02/03 06:06:18;;;;;;;20.98;17.42;;;8.00;99.90;;;;;;4916322;28;20304;-79
2023/02/03 06:08:49;;;;;;;24.20;17.83;;;8.00;99.90;;;;;;4914657;28;20287;-77
2023/02/03 06:11:19;;;;;;;29.17;22.42;;;8.10;99.90;;;;;;4907164;28;20248;-77
2023/02/03 06:13:47;;;;;;;23.48;19.48;;;8.10;99.90;;;;;;4915266;28;20226;-77
2023/02/03 06:16:14;;;;;;;26.70;20.30;;;8.10;99.90;;;;;;4915637;28;20299;-77
2023/02/03 06:18:41;;;;;;;23.45;17.50;;;8.20;99.90;;;;;;4915690;28;20312;-77
2023/02/03 06:21:08;;;;;;;28.63;21.00;;;8.20;99.90;;;;;;4915577;28;20291;-80
2023/02/03 06:23:35;;;;;;;27.08;21.85;;;8.30;99.90;;;;;;4908098;28;20691;-79
2023/02/03 06:26:02;;;;;;;24.90;17.92;;;8.30;99.90;;;;;;4914984;28;20229;-77
2023/02/03 06:28:32;;;;;;;20.92;16.98;;;8.40;99.90;;;;;;4916065;28;20303;-78
2023/02/03 06:31:01;;;;;;;24.10;19.75;;;8.40;99.90;;;;;;4915821;28;20237;-80
2023/02/03 06:33:28;;;;;;;21.60;17.83;;;8.40;99.90;;;;;;4915285;28;20687;-78
2023/02/03 06:35:55;;;;;;;18.35;16.38;;;8.50;99.90;;;;;;4914736;28;20229;-77
2023/02/03 06:38:22;;;;;;;23.58;17.27;;;8.50;99.90;;;;;;4915087;28;20667;-77
2023/02/03 06:40:50;;;;;;;19.83;17.13;;;8.60;99.90;;;;;;4915011;28;20256;-79
2023/02/03 06:43:18;;;;;;;22.08;19.08;;;8.60;99.90;;;;;;4915497;28;20257;-80
2023/02/03 06:45:49;;;;;;;18.65;16.20;;;8.60;99.90;;;;;;4915427;28;20690;-79
2023/02/03 06:48:17;;;;;;;21.23;17.05;;;8.70;99.90;;;;;;4914601;28;20329;-77
2023/02/03 06:50:45;;;;;;;19.63;17.38;;;8.70;99.90;;;;;;4915215;28;20763;-78
2023/02/03 06:53:15;;;;;;;26.85;18.88;;;8.70;99.90;;;;;;4914436;28;20313;-79
2023/02/03 06:55:42;;;;;;;23.35;16.95;;;8.70;99.90;;;;;;4914358;28;20240;-77
2023/02/03 06:58:09;;;;;;;22.27;17.35;;;8.80;99.90;;;;;;4914820;28;20253;-77
2023/02/03 07:00:36;;;;;;;21.55;17.38;;;8.80;99.90;;;;;;4906816;28;20233;-80
2023/02/03 07:03:03;;;;;;;23.95;17.90;;;8.80;99.90;;;;;;4914572;28;20264;-78
2023/02/03 07:05:32;;;;;;;28.83;22.35;;;8.80;99.90;;;;;;4915983;28;20248;-77
2023/02/03 07:07:59;;;;;;;21.05;17.55;;;8.80;99.90;;;;;;4918968;28;20240;-80
2023/02/03 07:10:26;;;;;;;24.83;18.10;;;8.80;99.90;;;;;;4918917;28;20324;-80
2023/02/03 07:12:53;;;;;;;43.03;31.45;;;8.80;99.90;;;;;;4917274;28;20292;-77
2023/02/03 07:15:20;;;;;;;27.08;19.25;;;8.80;99.90;;;;;;4916619;28;20226;-80
2023/02/03 07:17:53;;;;;;;21.58;18.17;;;8.90;99.90;;;;;;4915983;28;20230;-80
2023/02/03 07:20:21;;;;;;;21.55;19.00;;;8.90;99.90;;;;;;4914366;28;20236;-77
2023/02/03 07:22:54;;;;;;;32.67;22.83;;;8.90;99.90;;;;;;4914916;28;20240;-80
2023/02/03 07:25:22;;;;;;;22.45;18.35;;;8.90;99.90;;;;;;4914435;28;20225;-78
2023/02/03 07:27:49;;;;;;;24.88;20.73;;;8.90;99.90;;;;;;4914473;28;20229;-77
2023/02/03 07:30:22;;;;;;;22.63;18.70;;;8.90;99.90;;;;;;4913063;28;20291;-77
2023/02/03 07:32:50;;;;;;;24.90;19.73;;;8.90;99.90;;;;;;4914586;28;20234;-77
2023/02/03 07:35:24;;;;;;;21.02;16.90;;;8.90;99.90;;;;;;4913889;28;20283;-77
2023/02/03 07:37:53;;;;;;;22.73;19.52;;;8.90;99.90;;;;;;4914690;28;20233;-77
2023/02/03 07:40:20;;;;;;;26.85;20.00;;;9.00;99.90;;;;;;4913413;28;20295;-77
2023/02/03 07:42:49;;;;;;;25.80;20.95;;;9.00;99.90;;;;;;4914637;28;20264;-78
2023/02/03 07:45:24;;;;;;;21.20;18.85;;;9.00;99.90;;;;;;4913749;28;20680;-75
2023/02/03 07:47:51;;;;;;;24.73;16.40;;;8.90;99.90;;;;;;4914157;28;20256;-75
2023/02/03 07:50:18;;;;;;;18.55;15.68;;;9.00;99.90;;;;;;4910463;28;20280;-76
2023/02/03 07:52:45;;;;;;;19.35;16.23;;;9.00;99.90;;;;;;4913908;28;20256;-78
2023/02/03 07:55:14;;;;;;;21.00;18.10;;;9.00;99.90;;;;;;4905749;28;20229;-79
2023/02/03 07:57:43;;;;;;;22.63;18.38;;;9.10;99.90;;;;;;4913077;28;20260;-76
2023/02/03 08:00:12;;;;;;;20.50;18.30;;;9.10;99.90;;;;;;4913285;28;20234;-77
2023/02/03 08:02:45;;;;;;;18.50;15.82;;;9.10;99.90;;;;;;4914305;28;20234;-78
2023/02/03 08:05:15;;;;;;;15.80;12.93;;;9.10;99.90;;;;;;4913539;28;20253;-78
2023/02/03 08:07:42;;;;;;;15.35;13.23;;;9.00;99.90;;;;;;4914428;28;20256;-76
2023/02/03 08:10:12;;;;;;;22.45;16.85;;;9.10;99.90;;;;;;4912942;28;20287;-79
2023/02/03 08:12:41;;;;;;;13.45;12.02;;;9.10;99.90;;;;;;4906677;28;20241;-79
2023/02/03 08:15:12;;;;;;;13.82;12.27;;;9.20;99.90;;;;;;4913126;28;20310;-79
2023/02/03 08:17:43;;;;;;;14.50;12.15;;;9.20;99.90;;;;;;4913793;28;20233;-76
2023/02/03 08:20:11;;;;;;;12.82;11.18;;;9.20;99.90;;;;;;4913087;28;20233;-76
2023/02/03 08:22:38;;;;;;;11.43;10.32;;;9.20;99.90;;;;;;4913780;28;20699;-76
2023/02/03 08:25:06;;;;;;;15.50;13.43;;;9.30;99.90;;;;;;4913701;28;20233;-76
2023/02/03 08:27:40;;;;;;;14.77;12.85;;;9.20;99.90;;;;;;4913233;28;20291;-77
2023/02/03 08:30:23;;;;;;;13.27;11.73;;;9.20;99.90;;;;;;4913480;28;20237;-76
2023/02/03 08:32:51;;;;;;;12.27;11.13;;;9.20;99.90;;;;;;4913555;28;20373;-77
2023/02/03 08:35:18;;;;;;;12.10;10.93;;;9.20;99.90;;;;;;4913591;28;20229;-77
2023/02/03 08:37:45;;;;;;;12.75;11.00;;;9.30;99.90;;;;;;4913697;28;20237;-79
2023/02/03 08:40:13;;;;;;;13.73;12.30;;;9.20;99.90;;;;;;4913092;28;20287;-80
2023/02/03 08:42:40;;;;;;;13.40;12.00;;;9.20;99.90;;;;;;4913912;28;20591;-77
2023/02/03 08:45:08;;;;;;;18.70;15.18;;;9.20;99.90;;;;;;4913307;28;20229;-77
2023/02/03 08:47:36;;;;;;;14.48;10.27;;;9.20;99.90;;;;;;4945464;28;20296;-79
2023/02/03 08:50:05;;;;;;;9.80;8.90;;;9.30;99.90;;;;;;4912005;28;20264;-77
2023/02/03 08:52:31;;;;;;;10.70;9.70;;;9.20;99.90;;;;;;4914188;28;20233;-77
2023/02/03 08:54:59;;;;;;;10.35;9.30;;;9.30;99.90;;;;;;4912904;28;20699;-77
2023/02/03 08:57:26;;;;;;;9.65;8.48;;;9.30;99.90;;;;;;4913418;28;20226;-77
2023/02/03 08:59:53;;;;;;;9.70;8.80;;;9.30;99.90;;;;;;4912536;28;20245;-79
2023/02/03 09:02:20;;;;;;;10.27;7.80;;;9.30;99.90;;;;;;4913188;28;20690;-79
2023/02/03 09:04:49;;;;;;;13.07;9.20;;;9.30;99.90;;;;;;4914134;28;20305;-76
2023/02/03 09:07:16;;;;;;;10.95;9.07;;;9.30;99.90;;;;;;4913120;28;20241;-76
2023/02/03 09:09:43;;;;;;;9.02;7.30;;;9.30;99.90;;;;;;4912544;28;20292;-79
2023/02/03 09:12:11;;;;;;;8.55;7.72;;;9.30;99.90;;;;;;4912804;28;20229;-77
2023/02/03 09:14:39;;;;;;;9.50;8.05;;;9.30;99.90;;;;;;4913300;28;20226;-78
2023/02/03 09:17:08;;;;;;;10.27;8.23;;;9.30;99.90;;;;;;4913549;28;20257;-77
2023/02/03 09:19:35;;;;;;;8.82;7.97;;;9.40;99.90;;;;;;4906554;28;20234;-79
2023/02/03 09:22:03;;;;;;;14.13;11.57;;;9.40;99.90;;;;;;4914748;28;20229;-77
2023/02/03 09:24:31;;;;;;;16.85;12.50;;;9.40;99.90;;;;;;4916439;28;20232;-77
2023/02/03 09:26:59;;;;;;;10.52;9.50;;;9.40;99.90;;;;;;4916840;28;20229;-79
2023/02/03 09:29:27;;;;;;;8.57;7.65;;;9.50;99.90;;;;;;4916011;28;20316;-79
2023/02/03 09:31:54;;;;;;;7.82;7.05;;;9.40;99.90;;;;;;4916327;28;20237;-79
2023/02/03 09:34:22;;;;;;;8.68;7.88;;;9.50;99.90;;;;;;4918891;28;20238;-77
2023/02/03 09:36:50;;;;;;;6.47;5.93;;;9.50;99.90;;;;;;4916335;28;20240;-77
2023/02/03 09:39:18;;;;;;;11.05;6.70;;;9.50;99.90;;;;;;4915933;28;20245;-77
2023/02/03 09:41:56;;;;;;;9.70;7.30;;;9.50;99.90;;;;;;4916542;28;20253;-77
2023/02/03 09:44:32;;;;;;;6.40;5.80;;;9.50;99.90;;;;;;4915597;28;20284;-76
2023/02/03 09:47:02;;;;;;;7.40;6.38;;;9.50;99.90;;;;;;4916334;28;20359;-77
2023/02/03 09:49:40;;;;;;;7.05;5.38;;;9.60;99.90;;;;;;4915644;28;20233;-77
2023/02/03 09:52:12;;;;;;;6.38;5.78;;;9.60;99.90;;;;;;4916133;28;20240;-77
2023/02/03 09:54:45;;;;;;;5.53;4.38;;;9.60;99.90;;;;;;4915938;28;20276;-77
2023/02/03 09:57:18;;;;;;;5.70;5.20;;;9.60;99.90;;;;;;4916246;28;20249;-77
2023/02/03 09:59:45;;;;;;;4.60;4.30;;;9.60;99.90;;;;;;4915594;28;20237;-76
2023/02/03 10:02:26;;;;;;;6.57;5.15;;;9.60;99.90;;;;;;4916358;28;20283;-76
2023/02/03 10:05:05;;;;;;;8.00;6.53;;;9.60;99.90;;;;;;4915898;28;20225;-79
2023/02/03 10:07:42;;;;;;;6.03;4.55;;;9.70;99.90;;;;;;4913937;28;20295;-79
2023/02/03 10:10:17;;;;;;;5.43;4.93;;;9.70;99.90;;;;;;4911504;28;20230;-79
2023/02/03 10:12:58;;;;;;;7.20;6.57;;;9.70;99.90;;;;;;4935424;28;20225;-77
2023/02/03 10:15:53;;;;;;;8.38;6.65;;;9.70;99.90;;;;;;4940715;28;20725;-79
2023/02/03 10:18:23;;;;;;;7.80;6.43;;;9.70;99.90;;;;;;4910080;28;20221;-76
2023/02/03 10:20:56;;;;;;;7.30;4.80;;;9.70;99.90;;;;;;4940192;28;20229;-77
2023/02/03 10:23:28;;;;;;;5.05;3.78;;;9.80;99.90;;;;;;4915118;28;20230;-76
2023/02/03 10:26:03;;;;;;;4.35;3.95;;;9.70;99.90;;;;;;4916546;28;20770;-80
2023/02/03 10:28:38;;;;;;;4.10;3.67;;;9.80;99.90;;;;;;4954250;28;20256;-80
2023/02/03 10:31:16;;;;;;;3.60;3.30;;;9.80;99.90;;;;;;4915121;28;20237;-79
2023/02/03 10:33:43;;;;;;;5.88;4.30;;;9.90;99.90;;;;;;4915514;28;20237;-79
2023/02/03 10:36:19;;;;;;;4.60;4.20;;;9.90;99.90;;;;;;4915823;28;20234;-78
2023/02/03 10:38:53;;;;;;;5.75;4.30;;;9.90;99.90;;;;;;4925226;28;20230;-78
2023/02/03 10:41:23;;;;;;;6.50;5.60;;;9.90;99.90;;;;;;4914970;28;20257;-78
2023/02/03 10:43:54;;;;;;;5.45;4.10;;;9.90;99.90;;;;;;4914115;28;20546;-76
2023/02/03 10:46:27;;;;;;;3.88;3.10;;;9.90;99.90;;;;;;4943096;28;20226;-78
2023/02/03 10:48:59;;;;;;;9.38;3.78;;;9.90;99.90;;;;;;4909375;28;20225;-78
2023/02/03 10:51:29;;;;;;;3.88;2.38;;;9.80;99.90;;;;;;4924345;28;20244;-80
2023/02/03 10:53:56;;;;;;;4.38;2.45;;;9.70;99.90;;;;;;4916131;28;20237;-80
2023/02/03 10:56:31;;;;;;;4.70;2.67;;;9.60;99.90;;;;;;4914964;29;20236;-80
2023/02/03 10:59:01;;;;;;;3.22;1.50;;;9.60;99.90;;;;;;4914462;28;20221;-80
2023/02/03 11:01:40;;;;;;;5.55;2.50;;;9.50;99.90;;;;;;4914056;28;20248;-79
2023/02/03 11:04:27;;;;;;;7.00;2.47;;;9.40;99.90;;;;;;4914601;28;20635;-76
2023/02/03 11:06:56;;;;;;;8.15;4.50;;;9.40;99.90;;;;;;4905823;28;20229;-78
2023/02/03 11:09:31;;;;;;;4.40;4.00;;;9.40;99.90;;;;;;4953201;28;20237;-78
2023/02/03 11:12:11;;;;;;;13.80;3.15;;;9.40;99.90;;;;;;4943147;28;20226;-78
2023/02/03 11:14:39;;;;;;;7.50;3.03;;;9.40;99.90;;;;;;5006573;28;20584;-77
2023/02/03 11:17:09;;;;;;;4.78;1.90;;;9.40;99.90;;;;;;4934744;28;20288;-78
2023/02/03 11:19:39;;;;;;;5.65;2.55;;;9.40;99.90;;;;;;4896033;28;20313;-78
2023/02/03 11:22:07;;;;;;;6.80;2.13;;;9.40;99.90;;;;;;4895270;28;20230;-76
2023/02/03 11:24:39;;;;;;;6.95;4.43;;;9.50;99.90;;;;;;4920125;28;20660;-79
2023/02/03 11:27:13;;;;;;;11.15;3.22;;;9.50;99.90;;;;;;5014276;28;20680;-76
2023/02/03 11:29:43;;;;;;;13.02;3.63;;;9.50;99.90;;;;;;5013804;28;20919;-79
2023/02/03 11:32:18;;;;;;;8.05;3.10;;;9.40;99.90;;;;;;5011851;28;20233;-78
2023/02/03 11:34:54;;;;;;;12.27;4.00;;;9.40;99.90;;;;;;5014123;28;20275;-78
2023/02/03 11:37:30;;;;;;;14.88;4.85;;;9.50;99.90;;;;;;5013531;28;20287;-78
2023/02/03 11:39:57;;;;;;;13.80;4.25;;;9.40;99.90;;;;;;5013072;28;20225;-79
2023/02/03 11:42:26;;;;;;;9.57;3.97;;;9.40;99.90;;;;;;4960830;28;20287;-76
2023/02/03 11:45:13;;;;;;;10.70;4.07;;;9.40;99.90;;;;;;4913591;28;20236;-79
2023/02/03 11:47:46;;;;;;;8.80;3.55;;;9.40;99.90;;;;;;4914339;28;20249;-78
2023/02/03 11:50:41;;;;;;;9.35;4.32;;;9.50;99.90;;;;;;4968660;28;20679;-76
2023/02/03 11:53:27;;;;;;;13.63;5.05;;;9.50;99.90;;;;;;4914181;28;20610;-76
2023/02/03 11:56:32;;;;;;;22.00;6.10;;;9.50;99.90;;;;;;4914350;28;20237;-81
2023/02/03 11:59:35;;;;;;;10.35;4.90;;;9.50;99.90;;;;;;4914898;28;20231;-77
2023/02/03 12:02:43;;;;;;;14.90;4.80;;;9.60;99.90;;;;;;4915972;28;20227;-76
2023/02/03 12:05:27;;;;;;;15.77;5.22;;;9.60;99.90;;;;;;4912348;28;20287;-77
2023/02/03 12:08:08;;;;;;;13.07;6.18;;;9.60;99.90;;;;;;4911861;28;20257;-76
2023/02/03 12:10:52;;;;;;;11.13;4.78;;;9.60;99.90;;;;;;4894461;28;20234;-77
2023/02/03 12:13:35;;;;;;;14.52;5.32;;;9.50;99.90;;;;;;4893521;28;20246;-77
2023/02/03 12:16:30;;;;;;;19.33;4.82;;;9.60;99.90;;;;;;4931914;28;20225;-77
2023/02/03 12:19:08;;;;;;;17.63;5.85;;;9.60;99.90;;;;;;4930873;28;20235;-76
2023/02/03 12:21:46;;;;;;;16.35;6.07;;;9.70;99.90;;;;;;4922355;28;20232;-76
2023/02/03 12:24:36;;;;;;;15.88;6.03;;;9.70;99.90;;;;;;4922960;28;20652;-78
2023/02/03 12:27:20;;;;;;;13.88;6.00;;;9.80;99.90;;;;;;4930914;28;20232;-75
2023/02/03 12:29:52;;;;;;;14.07;6.30;;;9.80;99.90;;;;;;4932637;28;20232;-75
2023/02/03 12:32:35;;;;;;;20.80;7.03;;;9.80;99.90;;;;;;4931138;28;20228;-77
2023/02/03 12:35:17;;;;;;;24.13;6.88;;;9.80;99.90;;;;;;4932704;28;20279;-77
2023/02/03 12:37:49;;;;;;;12.68;5.05;;;9.80;99.90;;;;;;4933739;28;20345;-76
2023/02/03 12:40:21;;;;;;;25.08;6.97;;;9.90;99.90;;;;;;4965070;28;20234;-76
2023/02/03 12:42:53;;;;;;;20.55;5.70;;;9.90;99.90;;;;;;4964104;28;20316;-77
2023/02/03 12:45:25;;;;;;;20.33;6.97;;;9.90;99.90;;;;;;4913398;28;20312;-76
2023/02/03 12:47:56;;;;;;;17.88;6.38;;;9.90;99.90;;;;;;4994086;28;20234;-78
2023/02/03 12:50:30;;;;;;;25.23;10.35;;;10.00;99.90;;;;;;5012094;28;20245;-78
2023/02/03 12:53:05;;;;;;;19.45;7.10;;;10.00;99.90;;;;;;5012389;28;20217;-78
2023/02/03 12:55:36;;;;;;;16.88;7.13;;;10.00;99.90;;;;;;5004887;28;20637;-76
2023/02/03 12:58:11;;;;;;;16.50;5.55;;;10.10;99.90;;;;;;5000901;28;20226;-75
2023/02/03 13:00:45;;;;;;;13.95;3.75;;;10.10;99.90;;;;;;4996510;28;20226;-75
2023/02/03 13:03:28;;;;;;;5.47;2.20;;;10.10;99.90;;;;;;4997053;28;20707;-76
2023/02/03 13:06:10;;;;;;;9.60;2.90;;;9.80;99.90;;;;;;4997876;28;20233;-79
2023/02/03 13:08:39;;;;;;;9.90;3.40;;;9.60;99.90;;;;;;4921886;28;20577;-79
2023/02/03 13:11:19;;;;;;;7.03;4.35;;;9.40;99.90;;;;;;4900883;28;20237;-78
2023/02/03 13:13:52;;;;;;;7.50;3.35;;;9.20;99.90;;;;;;4916763;28;20259;-78
2023/02/03 13:16:24;;;;;;;7.40;3.20;;;9.10;99.90;;;;;;4924345;28;20240;-76
2023/02/03 13:19:00;;;;;;;15.05;4.30;;;8.90;99.90;;;;;;4918290;28;20699;-76
2023/02/03 13:21:29;;;;;;;13.27;5.30;;;8.80;99.90;;;;;;4916881;28;20252;-76
2023/02/03 13:23:59;;;;;;;11.63;4.35;;;8.70;99.90;;;;;;4915733;28;20229;-76
2023/02/03 13:26:49;;;;;;;14.25;4.85;;;8.60;99.90;;;;;;4953623;28;20311;-78
2023/02/03 13:29:39;;;;;;;11.00;5.68;;;8.50;99.90;;;;;;4997822;28;20715;-76
2023/02/03 13:32:24;;;;;;;21.33;5.57;;;8.40;99.90;;;;;;4915858;28;20261;-77
2023/02/03 13:35:18;;;;;;;14.93;5.65;;;8.30;99.90;;;;;;4916454;29;20233;-76
2023/02/03 13:38:28;;;;;;;13.35;4.30;;;8.30;99.90;;;;;;4925853;28;20245;-79
2023/02/03 13:41:09;;;;;;;14.40;4.25;;;8.30;99.90;;;;;;4900121;28;20226;-79
2023/02/03 13:43:40;;;;;;;10.93;3.72;;;8.30;99.90;;;;;;4905504;28;20712;-77
2023/02/03 13:46:25;;;;;;;10.95;3.63;;;8.30;99.90;;;;;;4897504;28;20321;-79
2023/02/03 13:49:03;;;;;;;14.63;4.95;;;8.30;99.90;;;;;;4914484;28;20296;-79